sensor_id;sensor_type;location;lat;lon;timestamp;temperature;humidity
31309;DHT22;17936;52.446;10.840;2023-05-21T00:00:58;12.80;85.20
31309;DHT22;17936;52.446;10.840;2023-05-21T00:03:23;12.80;77.80
31309;DHT22;17936;52.446;10.840;2023-05-21T00:05:51;12.80;79.70
31309;DHT22;17936;52.446;10.840;2023-05-21T00:08:16;12.70;88.70
31309;DHT22;17936;52.446;10.840;2023-05-21T00:10:42;12.80;90.20
31309;DHT22;17936;52.446;10.840;2023-05-21T00:13:08;12.70;85.60
31309;DHT22;17936;52.446;10.840;2023-05-21T00:15:35;12.70;92.60
31309;DHT22;17936;52.446;10.840;2023-05-21T00:18:00;12.70;93.30
31309;DHT22;17936;52.446;10.840;2023-05-21T00:20:26;12.80;90.80
31309;DHT22;17936;52.446;10.840;2023-05-21T00:22:53;12.70;81.60
31309;DHT22;17936;52.446;10.840;2023-05-21T00:25:19;12.70;82.60
31309;DHT22;17936;52.446;10.840;2023-05-21T00:27:45;12.60;91.10
31309;DHT22;17936;52.446;10.840;2023-05-21T00:30:10;12.60;94.00
31309;DHT22;17936;52.446;10.840;2023-05-21T00:32:36;12.60;93.90
31309;DHT22;17936;52.446;10.840;2023-05-21T00:35:02;12.60;89.20
31309;DHT22;17936;52.446;10.840;2023-05-21T00:37:28;12.60;92.20
31309;DHT22;17936;52.446;10.840;2023-05-21T00:40:01;12.60;76.60
31309;DHT22;17936;52.446;10.840;2023-05-21T00:42:28;12.60;84.90
31309;DHT22;17936;52.446;10.840;2023-05-21T00:44:55;12.60;85.80
31309;DHT22;17936;52.446;10.840;2023-05-21T00:47:21;12.50;85.80
31309;DHT22;17936;52.446;10.840;2023-05-21T00:49:48;12.40;96.40
31309;DHT22;17936;52.446;10.840;2023-05-21T00:52:15;12.50;97.80
31309;DHT22;17936;52.446;10.840;2023-05-21T00:54:45;12.50;95.30
31309;DHT22;17936;52.446;10.840;2023-05-21T00:57:12;12.50;93.70
31309;DHT22;17936;52.446;10.840;2023-05-21T00:59:38;12.40;95.30
31309;DHT22;17936;52.446;10.840;2023-05-21T01:02:04;12.30;98.90
31309;DHT22;17936;52.446;10.840;2023-05-21T01:04:31;12.30;99.90
31309;DHT22;17936;52.446;10.840;2023-05-21T01:06:57;12.20;99.90
31309;DHT22;17936;52.446;10.840;2023-05-21T01:09:24;12.20;99.90
31309;DHT22;17936;52.446;10.840;2023-05-21T01:11:50;12.20;99.90
31309;DHT22;17936;52.446;10.840;2023-05-21T01:14:17;12.30;99.90
31309;DHT22;17936;52.446;10.840;2023-05-21T01:16:45;12.20;99.90
31309;DHT22;17936;52.446;10.840;2023-05-21T01:19:18;12.20;99.90
31309;DHT22;17936;52.446;10.840;2023-05-21T01:21:49;12.20;99.90
31309;DHT22;17936;52.446;10.840;2023-05-21T01:24:16;12.10;99.90
31309;DHT22;17936;52.446;10.840;2023-05-21T01:26:41;12.20;99.90
31309;DHT22;17936;52.446;10.840;2023-05-21T01:29:08;12.20;99.90
31309;DHT22;17936;52.446;10.840;2023-05-21T01:34:26;12.20;99.90
31309;DHT22;17936;52.446;10.840;2023-05-21T01:37:07;12.10;99.90
31309;DHT22;17936;52.446;10.840;2023-05-21T01:39:38;12.00;99.90
31309;DHT22;17936;52.446;10.840;2023-05-21T01:42:09;12.10;99.90
31309;DHT22;17936;52.446;10.840;2023-05-21T01:44:35;12.10;99.90
31309;DHT22;17936;52.446;10.840;2023-05-21T01:47:02;12.00;99.90
31309;DHT22;17936;52.446;10.840;2023-05-21T01:49:29;11.90;99.90
31309;DHT22;17936;52.446;10.840;2023-05-21T01:51:55;11.90;99.90
31309;DHT22;17936;52.446;10.840;2023-05-21T01:54:21;11.90;99.90
31309;DHT22;17936;52.446;10.840;2023-05-21T01:56:48;11.90;99.90
31309;DHT22;17936;52.446;10.840;2023-05-21T01:59:15;11.90;99.90
31309;DHT22;17936;52.446;10.840;2023-05-21T02:01:41;11.90;99.90
31309;DHT22;17936;52.446;10.840;2023-05-21T02:04:07;11.70;99.90
31309;DHT22;17936;52.446;10.840;2023-05-21T02:06:32;11.70;99.90
31309;DHT22;17936;52.446;10.840;2023-05-21T02:09:00;11.70;99.90
31309;DHT22;17936;52.446;10.840;2023-05-21T02:11:27;11.80;99.90
31309;DHT22;17936;52.446;10.840;2023-05-21T02:13:52;11.70;99.90
31309;DHT22;17936;52.446;10.840;2023-05-21T02:16:18;11.70;99.90
31309;DHT22;17936;52.446;10.840;2023-05-21T02:18:44;11.70;99.90
31309;DHT22;17936;52.446;10.840;2023-05-21T02:21:10;11.60;99.90
31309;DHT22;17936;52.446;10.840;2023-05-21T02:23:36;11.70;99.90
31309;DHT22;17936;52.446;10.840;2023-05-21T02:26:02;11.60;99.90
31309;DHT22;17936;52.446;10.840;2023-05-21T02:28:28;11.70;99.90
31309;DHT22;17936;52.446;10.840;2023-05-21T02:30:54;11.70;99.90
31309;DHT22;17936;52.446;10.840;2023-05-21T02:33:20;11.70;99.90
31309;DHT22;17936;52.446;10.840;2023-05-21T02:35:46;11.70;99.90
31309;DHT22;17936;52.446;10.840;2023-05-21T02:38:12;11.60;99.90
31309;DHT22;17936;52.446;10.840;2023-05-21T02:40:38;11.50;99.90
31309;DHT22;17936;52.446;10.840;2023-05-21T02:43:04;11.50;99.90
31309;DHT22;17936;52.446;10.840;2023-05-21T02:45:29;11.50;99.90
31309;DHT22;17936;52.446;10.840;2023-05-21T02:47:55;11.50;99.90
31309;DHT22;17936;52.446;10.840;2023-05-21T02:50:20;11.50;99.90
31309;DHT22;17936;52.446;10.840;2023-05-21T02:52:47;11.40;99.90
31309;DHT22;17936;52.446;10.840;2023-05-21T02:55:13;11.40;99.90
31309;DHT22;17936;52.446;10.840;2023-05-21T02:57:38;11.50;99.90
31309;DHT22;17936;52.446;10.840;2023-05-21T03:00:04;11.50;99.90
31309;DHT22;17936;52.446;10.840;2023-05-21T03:02:35;11.30;99.90
31309;DHT22;17936;52.446;10.840;2023-05-21T03:05:00;11.40;99.90
31309;DHT22;17936;52.446;10.840;2023-05-21T03:07:27;11.30;99.90
31309;DHT22;17936;52.446;10.840;2023-05-21T03:09:52;11.20;99.90
31309;DHT22;17936;52.446;10.840;2023-05-21T03:12:18;11.20;99.90
31309;DHT22;17936;52.446;10.840;2023-05-21T03:14:43;11.20;99.90
31309;DHT22;17936;52.446;10.840;2023-05-21T03:17:10;11.20;99.90
31309;DHT22;17936;52.446;10.840;2023-05-21T03:19:39;11.20;99.90
31309;DHT22;17936;52.446;10.840;2023-05-21T03:22:05;11.10;99.90
31309;DHT22;17936;52.446;10.840;2023-05-21T03:24:31;11.10;99.90
31309;DHT22;17936;52.446;10.840;2023-05-21T03:26:58;11.20;99.90
31309;DHT22;17936;52.446;10.840;2023-05-21T03:29:25;11.10;99.90
31309;DHT22;17936;52.446;10.840;2023-05-21T03:31:51;11.20;99.90
31309;DHT22;17936;52.446;10.840;2023-05-21T03:34:18;11.20;99.90
31309;DHT22;17936;52.446;10.840;2023-05-21T03:36:47;11.30;99.90
31309;DHT22;17936;52.446;10.840;2023-05-21T03:39:13;11.20;99.90
31309;DHT22;17936;52.446;10.840;2023-05-21T03:41:38;11.20;99.90
31309;DHT22;17936;52.446;10.840;2023-05-21T03:44:04;11.20;99.90
31309;DHT22;17936;52.446;10.840;2023-05-21T03:46:30;11.30;99.90
31309;DHT22;17936;52.446;10.840;2023-05-21T03:48:55;11.20;99.90
31309;DHT22;17936;52.446;10.840;2023-05-21T03:51:22;11.10;99.90
31309;DHT22;17936;52.446;10.840;2023-05-21T03:53:49;11.20;99.90
31309;DHT22;17936;52.446;10.840;2023-05-21T03:56:15;11.10;99.90
31309;DHT22;17936;52.446;10.840;2023-05-21T03:58:40;11.10;99.90
31309;DHT22;17936;52.446;10.840;2023-05-21T04:01:06;11.10;99.90
31309;DHT22;17936;52.446;10.840;2023-05-21T04:03:33;11.20;99.90
31309;DHT22;17936;52.446;10.840;2023-05-21T04:06:00;11.20;99.90
31309;DHT22;17936;52.446;10.840;2023-05-21T04:08:25;11.20;99.90
31309;DHT22;17936;52.446;10.840;2023-05-21T04:10:51;11.20;99.90
31309;DHT22;17936;52.446;10.840;2023-05-21T04:13:17;11.20;99.90
31309;DHT22;17936;52.446;10.840;2023-05-21T04:15:42;11.20;99.90
31309;DHT22;17936;52.446;10.840;2023-05-21T04:18:11;11.20;99.90
31309;DHT22;17936;52.446;10.840;2023-05-21T04:20:38;11.20;99.90
31309;DHT22;17936;52.446;10.840;2023-05-21T04:23:03;11.30;99.90
31309;DHT22;17936;52.446;10.840;2023-05-21T04:25:29;11.30;99.90
31309;DHT22;17936;52.446;10.840;2023-05-21T04:27:54;11.30;99.90
31309;DHT22;17936;52.446;10.840;2023-05-21T04:30:20;11.40;99.90
31309;DHT22;17936;52.446;10.840;2023-05-21T04:32:46;11.50;99.90
31309;DHT22;17936;52.446;10.840;2023-05-21T04:35:12;11.50;99.90
31309;DHT22;17936;52.446;10.840;2023-05-21T04:37:39;11.60;99.90
31309;DHT22;17936;52.446;10.840;2023-05-21T04:40:07;11.60;99.90
31309;DHT22;17936;52.446;10.840;2023-05-21T04:42:33;11.70;99.90
31309;DHT22;17936;52.446;10.840;2023-05-21T04:44:59;11.80;99.90
31309;DHT22;17936;52.446;10.840;2023-05-21T04:47:25;11.90;99.90
31309;DHT22;17936;52.446;10.840;2023-05-21T04:49:50;12.00;99.90
31309;DHT22;17936;52.446;10.840;2023-05-21T04:52:16;12.00;99.90
31309;DHT22;17936;52.446;10.840;2023-05-21T04:54:41;12.10;99.90
31309;DHT22;17936;52.446;10.840;2023-05-21T04:57:07;12.10;99.90
31309;DHT22;17936;52.446;10.840;2023-05-21T04:59:34;12.10;99.90
31309;DHT22;17936;52.446;10.840;2023-05-21T05:01:59;12.30;99.90
31309;DHT22;17936;52.446;10.840;2023-05-21T05:04:25;12.40;99.90
31309;DHT22;17936;52.446;10.840;2023-05-21T05:06:51;12.40;99.90
31309;DHT22;17936;52.446;10.840;2023-05-21T05:09:17;12.50;99.90
31309;DHT22;17936;52.446;10.840;2023-05-21T05:11:42;12.60;99.90
31309;DHT22;17936;52.446;10.840;2023-05-21T05:14:08;12.50;99.90
31309;DHT22;17936;52.446;10.840;2023-05-21T05:16:33;12.60;99.90
31309;DHT22;17936;52.446;10.840;2023-05-21T05:18:59;12.60;99.90
31309;DHT22;17936;52.446;10.840;2023-05-21T05:21:25;12.70;99.90
31309;DHT22;17936;52.446;10.840;2023-05-21T05:23:50;12.90;99.90
31309;DHT22;17936;52.446;10.840;2023-05-21T05:26:16;13.10;96.60
31309;DHT22;17936;52.446;10.840;2023-05-21T05:28:42;13.20;92.80
31309;DHT22;17936;52.446;10.840;2023-05-21T05:31:07;13.50;79.00
31309;DHT22;17936;52.446;10.840;2023-05-21T05:33:33;13.60;49.90
31309;DHT22;17936;52.446;10.840;2023-05-21T05:35:58;13.50;52.30
31309;DHT22;17936;52.446;10.840;2023-05-21T05:38:25;13.50;52.90
31309;DHT22;17936;52.446;10.840;2023-05-21T05:40:51;13.70;58.00
31309;DHT22;17936;52.446;10.840;2023-05-21T05:43:16;13.90;28.80
31309;DHT22;17936;52.446;10.840;2023-05-21T05:45:41;13.80;11.80
31309;DHT22;17936;52.446;10.840;2023-05-21T05:48:07;14.10;2.40
31309;DHT22;17936;52.446;10.840;2023-05-21T05:50:33;14.30;1.00
31309;DHT22;17936;52.446;10.840;2023-05-21T05:52:58;14.20;1.00
31309;DHT22;17936;52.446;10.840;2023-05-21T05:55:24;14.30;1.00
31309;DHT22;17936;52.446;10.840;2023-05-21T05:57:51;14.50;1.00
31309;DHT22;17936;52.446;10.840;2023-05-21T06:00:16;14.50;1.00
31309;DHT22;17936;52.446;10.840;2023-05-21T06:02:42;14.60;1.00
31309;DHT22;17936;52.446;10.840;2023-05-21T06:05:08;14.60;1.00
31309;DHT22;17936;52.446;10.840;2023-05-21T06:07:36;14.70;1.00
31309;DHT22;17936;52.446;10.840;2023-05-21T06:10:06;14.60;1.00
31309;DHT22;17936;52.446;10.840;2023-05-21T06:12:31;14.70;1.00
31309;DHT22;17936;52.446;10.840;2023-05-21T06:14:57;14.80;1.00
31309;DHT22;17936;52.446;10.840;2023-05-21T06:17:23;14.90;1.00
31309;DHT22;17936;52.446;10.840;2023-05-21T06:19:48;14.70;1.00
31309;DHT22;17936;52.446;10.840;2023-05-21T06:22:14;14.80;1.00
31309;DHT22;17936;52.446;10.840;2023-05-21T06:24:39;14.90;1.00
31309;DHT22;17936;52.446;10.840;2023-05-21T06:27:05;15.00;1.00
31309;DHT22;17936;52.446;10.840;2023-05-21T06:29:30;15.10;1.00
31309;DHT22;17936;52.446;10.840;2023-05-21T06:31:56;15.30;1.00
31309;DHT22;17936;52.446;10.840;2023-05-21T06:34:21;15.70;99.90
31309;DHT22;17936;52.446;10.840;2023-05-21T06:36:47;15.90;99.90
31309;DHT22;17936;52.446;10.840;2023-05-21T06:39:13;15.60;99.90
31309;DHT22;17936;52.446;10.840;2023-05-21T06:41:38;15.60;99.90
31309;DHT22;17936;52.446;10.840;2023-05-21T06:44:04;15.70;99.90
31309;DHT22;17936;52.446;10.840;2023-05-21T06:46:30;15.70;99.90
31309;DHT22;17936;52.446;10.840;2023-05-21T06:48:55;15.70;99.90
31309;DHT22;17936;52.446;10.840;2023-05-21T06:51:21;15.50;99.90
31309;DHT22;17936;52.446;10.840;2023-05-21T06:53:46;15.60;99.90
31309;DHT22;17936;52.446;10.840;2023-05-21T06:56:12;15.70;1.00
31309;DHT22;17936;52.446;10.840;2023-05-21T06:58:38;15.70;1.00
31309;DHT22;17936;52.446;10.840;2023-05-21T07:01:03;15.70;99.90
31309;DHT22;17936;52.446;10.840;2023-05-21T07:03:29;15.90;1.00
31309;DHT22;17936;52.446;10.840;2023-05-21T07:05:56;16.00;99.90
31309;DHT22;17936;52.446;10.840;2023-05-21T07:08:21;16.30;99.90
31309;DHT22;17936;52.446;10.840;2023-05-21T07:10:48;16.30;99.90
31309;DHT22;17936;52.446;10.840;2023-05-21T07:13:14;16.50;99.90
31309;DHT22;17936;52.446;10.840;2023-05-21T07:15:40;16.60;13.70
31309;DHT22;17936;52.446;10.840;2023-05-21T07:18:06;16.90;1.00
31309;DHT22;17936;52.446;10.840;2023-05-21T07:20:31;17.30;99.90
31309;DHT22;17936;52.446;10.840;2023-05-21T07:22:57;17.70;99.90
31309;DHT22;17936;52.446;10.840;2023-05-21T07:25:22;17.80;99.90
31309;DHT22;17936;52.446;10.840;2023-05-21T07:27:48;18.10;1.00
31309;DHT22;17936;52.446;10.840;2023-05-21T07:30:14;17.60;1.00
31309;DHT22;17936;52.446;10.840;2023-05-21T07:32:40;17.90;1.00
31309;DHT22;17936;52.446;10.840;2023-05-21T07:35:05;18.60;99.90
31309;DHT22;17936;52.446;10.840;2023-05-21T07:37:31;18.60;99.90
31309;DHT22;17936;52.446;10.840;2023-05-21T07:39:57;18.80;99.90
31309;DHT22;17936;52.446;10.840;2023-05-21T07:42:23;19.30;99.90
31309;DHT22;17936;52.446;10.840;2023-05-21T07:44:48;18.80;99.90
31309;DHT22;17936;52.446;10.840;2023-05-21T07:47:14;19.20;99.90
31309;DHT22;17936;52.446;10.840;2023-05-21T07:49:40;19.20;99.90
31309;DHT22;17936;52.446;10.840;2023-05-21T07:52:05;19.30;99.90
31309;DHT22;17936;52.446;10.840;2023-05-21T07:54:31;19.50;98.10
31309;DHT22;17936;52.446;10.840;2023-05-21T07:56:57;19.70;99.90
31309;DHT22;17936;52.446;10.840;2023-05-21T07:59:23;19.90;69.90
31309;DHT22;17936;52.446;10.840;2023-05-21T08:01:48;19.10;99.90
31309;DHT22;17936;52.446;10.840;2023-05-21T08:04:14;19.00;99.90
31309;DHT22;17936;52.446;10.840;2023-05-21T08:06:39;18.80;99.90
31309;DHT22;17936;52.446;10.840;2023-05-21T08:09:05;18.90;99.90
31309;DHT22;17936;52.446;10.840;2023-05-21T08:11:31;18.90;99.90
31309;DHT22;17936;52.446;10.840;2023-05-21T08:13:56;18.80;99.90
31309;DHT22;17936;52.446;10.840;2023-05-21T08:16:22;18.70;99.90
31309;DHT22;17936;52.446;10.840;2023-05-21T08:18:48;18.50;99.90
31309;DHT22;17936;52.446;10.840;2023-05-21T08:21:14;18.50;99.90
31309;DHT22;17936;52.446;10.840;2023-05-21T08:23:39;18.90;99.90
31309;DHT22;17936;52.446;10.840;2023-05-21T08:26:05;18.80;99.90
31309;DHT22;17936;52.446;10.840;2023-05-21T08:28:31;18.90;99.90
31309;DHT22;17936;52.446;10.840;2023-05-21T08:30:56;18.70;99.90
31309;DHT22;17936;52.446;10.840;2023-05-21T08:33:22;18.60;99.90
31309;DHT22;17936;52.446;10.840;2023-05-21T08:35:48;18.70;99.90
31309;DHT22;17936;52.446;10.840;2023-05-21T08:38:14;18.80;99.90
31309;DHT22;17936;52.446;10.840;2023-05-21T08:40:41;18.80;99.90
31309;DHT22;17936;52.446;10.840;2023-05-21T08:43:06;18.50;99.90
31309;DHT22;17936;52.446;10.840;2023-05-21T08:45:38;18.70;99.90
31309;DHT22;17936;52.446;10.840;2023-05-21T08:48:08;19.20;99.90
31309;DHT22;17936;52.446;10.840;2023-05-21T08:50:34;19.30;99.90
31309;DHT22;17936;52.446;10.840;2023-05-21T08:53:00;19.30;99.90
31309;DHT22;17936;52.446;10.840;2023-05-21T08:55:26;19.20;99.90
31309;DHT22;17936;52.446;10.840;2023-05-21T08:57:53;19.10;99.90
31309;DHT22;17936;52.446;10.840;2023-05-21T09:00:19;19.20;99.90
31309;DHT22;17936;52.446;10.840;2023-05-21T09:02:49;19.20;99.90
31309;DHT22;17936;52.446;10.840;2023-05-21T09:05:15;19.40;99.90
31309;DHT22;17936;52.446;10.840;2023-05-21T09:07:54;19.80;99.90
31309;DHT22;17936;52.446;10.840;2023-05-21T09:10:30;19.60;99.90
31309;DHT22;17936;52.446;10.840;2023-05-21T09:12:58;20.00;99.90
31309;DHT22;17936;52.446;10.840;2023-05-21T09:15:24;20.10;88.70
31309;DHT22;17936;52.446;10.840;2023-05-21T09:17:49;20.70;68.80
31309;DHT22;17936;52.446;10.840;2023-05-21T09:20:15;20.70;44.60
31309;DHT22;17936;52.446;10.840;2023-05-21T09:22:46;20.90;40.20
31309;DHT22;17936;52.446;10.840;2023-05-21T09:25:16;20.90;12.50
31309;DHT22;17936;52.446;10.840;2023-05-21T09:27:43;21.40;4.50
31309;DHT22;17936;52.446;10.840;2023-05-21T09:30:10;21.40;1.00
31309;DHT22;17936;52.446;10.840;2023-05-21T09:32:37;21.90;1.00
31309;DHT22;17936;52.446;10.840;2023-05-21T09:35:11;22.00;1.00
31309;DHT22;17936;52.446;10.840;2023-05-21T09:37:40;22.10;1.00
31309;DHT22;17936;52.446;10.840;2023-05-21T09:40:28;22.30;1.00
31309;DHT22;17936;52.446;10.840;2023-05-21T09:42:54;22.60;1.00
31309;DHT22;17936;52.446;10.840;2023-05-21T09:45:21;22.40;1.00
31309;DHT22;17936;52.446;10.840;2023-05-21T09:47:48;22.40;1.00
31309;DHT22;17936;52.446;10.840;2023-05-21T09:50:18;22.30;1.00
31309;DHT22;17936;52.446;10.840;2023-05-21T09:52:44;22.50;1.00
31309;DHT22;17936;52.446;10.840;2023-05-21T09:55:10;22.50;1.00
31309;DHT22;17936;52.446;10.840;2023-05-21T09:57:44;22.20;1.00
31309;DHT22;17936;52.446;10.840;2023-05-21T10:00:21;21.90;1.00
31309;DHT22;17936;52.446;10.840;2023-05-21T10:02:48;21.90;1.00
31309;DHT22;17936;52.446;10.840;2023-05-21T10:05:15;21.90;1.00
31309;DHT22;17936;52.446;10.840;2023-05-21T10:07:49;22.40;1.00
31309;DHT22;17936;52.446;10.840;2023-05-21T10:10:17;22.20;1.00
31309;DHT22;17936;52.446;10.840;2023-05-21T10:12:45;22.30;1.00
31309;DHT22;17936;52.446;10.840;2023-05-21T10:15:15;22.80;1.00
31309;DHT22;17936;52.446;10.840;2023-05-21T10:17:45;22.50;1.00
31309;DHT22;17936;52.446;10.840;2023-05-21T10:20:11;23.10;1.00
31309;DHT22;17936;52.446;10.840;2023-05-21T10:22:38;23.00;1.00
31309;DHT22;17936;52.446;10.840;2023-05-21T10:25:06;23.00;1.00
31309;DHT22;17936;52.446;10.840;2023-05-21T10:27:32;23.10;1.00
31309;DHT22;17936;52.446;10.840;2023-05-21T10:29:59;23.70;1.00
31309;DHT22;17936;52.446;10.840;2023-05-21T10:32:26;23.60;1.00
31309;DHT22;17936;52.446;10.840;2023-05-21T10:34:56;23.20;1.00
31309;DHT22;17936;52.446;10.840;2023-05-21T10:37:25;23.30;1.00
31309;DHT22;17936;52.446;10.840;2023-05-21T10:39:52;23.90;1.00
31309;DHT22;17936;52.446;10.840;2023-05-21T10:42:25;24.30;1.00
31309;DHT22;17936;52.446;10.840;2023-05-21T10:50:41;25.60;99.90
31309;DHT22;17936;52.446;10.840;2023-05-21T10:53:31;25.00;99.90
31309;DHT22;17936;52.446;10.840;2023-05-21T10:59:03;25.70;99.90
31309;DHT22;17936;52.446;10.840;2023-05-21T11:01:33;25.40;99.90
31309;DHT22;17936;52.446;10.840;2023-05-21T11:04:01;25.00;99.90
31309;DHT22;17936;52.446;10.840;2023-05-21T11:06:27;24.80;99.90
31309;DHT22;17936;52.446;10.840;2023-05-21T11:08:53;25.10;99.90
31309;DHT22;17936;52.446;10.840;2023-05-21T11:11:41;26.30;99.90
31309;DHT22;17936;52.446;10.840;2023-05-21T11:14:38;26.30;99.90
31309;DHT22;17936;52.446;10.840;2023-05-21T11:17:36;26.50;99.90
31309;DHT22;17936;52.446;10.840;2023-05-21T11:20:10;26.40;99.90
31309;DHT22;17936;52.446;10.840;2023-05-21T11:22:37;26.40;99.90
31309;DHT22;17936;52.446;10.840;2023-05-21T11:25:02;26.20;99.90
31309;DHT22;17936;52.446;10.840;2023-05-21T11:27:39;26.30;99.90
31309;DHT22;17936;52.446;10.840;2023-05-21T11:30:05;26.80;99.90
31309;DHT22;17936;52.446;10.840;2023-05-21T11:32:38;27.20;99.90
31309;DHT22;17936;52.446;10.840;2023-05-21T11:35:04;27.40;99.90
31309;DHT22;17936;52.446;10.840;2023-05-21T11:37:31;27.20;99.90
31309;DHT22;17936;52.446;10.840;2023-05-21T11:40:18;27.20;99.90
31309;DHT22;17936;52.446;10.840;2023-05-21T11:42:49;27.00;99.90
31309;DHT22;17936;52.446;10.840;2023-05-21T11:45:17;26.70;99.90
31309;DHT22;17936;52.446;10.840;2023-05-21T11:47:43;27.80;99.90
31309;DHT22;17936;52.446;10.840;2023-05-21T11:50:12;27.50;99.90
31309;DHT22;17936;52.446;10.840;2023-05-21T11:52:39;26.60;99.90
31309;DHT22;17936;52.446;10.840;2023-05-21T11:55:05;26.40;99.90
31309;DHT22;17936;52.446;10.840;2023-05-21T11:57:31;26.40;99.90
31309;DHT22;17936;52.446;10.840;2023-05-21T11:59:59;27.20;99.90
31309;DHT22;17936;52.446;10.840;2023-05-21T12:02:31;27.20;99.90
31309;DHT22;17936;52.446;10.840;2023-05-21T12:04:57;27.50;99.90
31309;DHT22;17936;52.446;10.840;2023-05-21T12:07:26;27.40;99.90
31309;DHT22;17936;52.446;10.840;2023-05-21T12:09:53;27.30;99.90
31309;DHT22;17936;52.446;10.840;2023-05-21T12:12:20;27.50;99.90
31309;DHT22;17936;52.446;10.840;2023-05-21T12:14:53;28.00;99.90
31309;DHT22;17936;52.446;10.840;2023-05-21T12:17:20;28.30;99.90
31309;DHT22;17936;52.446;10.840;2023-05-21T12:19:46;27.60;99.90
31309;DHT22;17936;52.446;10.840;2023-05-21T12:22:12;27.50;99.90
31309;DHT22;17936;52.446;10.840;2023-05-21T12:24:39;28.00;99.90
31309;DHT22;17936;52.446;10.840;2023-05-21T12:27:06;28.00;99.90
31309;DHT22;17936;52.446;10.840;2023-05-21T12:29:38;27.90;99.90
31309;DHT22;17936;52.446;10.840;2023-05-21T12:32:12;27.80;99.90
31309;DHT22;17936;52.446;10.840;2023-05-21T12:34:52;27.10;99.90
31309;DHT22;17936;52.446;10.840;2023-05-21T12:37:23;26.30;99.90
31309;DHT22;17936;52.446;10.840;2023-05-21T12:39:54;25.90;99.90
31309;DHT22;17936;52.446;10.840;2023-05-21T12:42:38;26.40;99.90
31309;DHT22;17936;52.446;10.840;2023-05-21T12:45:08;26.50;99.90
31309;DHT22;17936;52.446;10.840;2023-05-21T12:47:34;26.60;99.90
31309;DHT22;17936;52.446;10.840;2023-05-21T12:50:00;27.10;99.90
31309;DHT22;17936;52.446;10.840;2023-05-21T12:52:26;27.60;99.90
31309;DHT22;17936;52.446;10.840;2023-05-21T12:54:54;27.70;99.90
31309;DHT22;17936;52.446;10.840;2023-05-21T12:57:23;27.50;99.90
31309;DHT22;17936;52.446;10.840;2023-05-21T13:02:40;27.20;99.90
31309;DHT22;17936;52.446;10.840;2023-05-21T13:05:08;27.90;99.90
31309;DHT22;17936;52.446;10.840;2023-05-21T13:07:36;28.00;99.90
31309;DHT22;17936;52.446;10.840;2023-05-21T13:10:03;28.30;99.90
31309;DHT22;17936;52.446;10.840;2023-05-21T13:12:30;28.00;99.90
31309;DHT22;17936;52.446;10.840;2023-05-21T13:14:57;27.90;99.90
31309;DHT22;17936;52.446;10.840;2023-05-21T13:17:23;27.50;99.90
31309;DHT22;17936;52.446;10.840;2023-05-21T13:20:14;27.40;99.90
31309;DHT22;17936;52.446;10.840;2023-05-21T13:22:42;27.50;99.90
31309;DHT22;17936;52.446;10.840;2023-05-21T13:25:08;27.40;99.90
31309;DHT22;17936;52.446;10.840;2023-05-21T13:27:35;27.60;99.90
31309;DHT22;17936;52.446;10.840;2023-05-21T13:30:01;28.20;99.90
31309;DHT22;17936;52.446;10.840;2023-05-21T13:32:26;27.60;99.90
31309;DHT22;17936;52.446;10.840;2023-05-21T13:34:52;27.00;99.90
31309;DHT22;17936;52.446;10.840;2023-05-21T13:37:17;27.10;99.90
31309;DHT22;17936;52.446;10.840;2023-05-21T13:39:45;27.60;99.90
31309;DHT22;17936;52.446;10.840;2023-05-21T13:42:10;27.30;99.90
31309;DHT22;17936;52.446;10.840;2023-05-21T13:44:37;27.40;99.90
31309;DHT22;17936;52.446;10.840;2023-05-21T13:47:03;27.40;99.90
31309;DHT22;17936;52.446;10.840;2023-05-21T13:49:29;27.40;99.90
31309;DHT22;17936;52.446;10.840;2023-05-21T13:51:54;27.60;99.90
31309;DHT22;17936;52.446;10.840;2023-05-21T13:54:20;27.90;99.90
31309;DHT22;17936;52.446;10.840;2023-05-21T13:56:46;27.70;99.90
31309;DHT22;17936;52.446;10.840;2023-05-21T13:59:12;27.60;99.90
31309;DHT22;17936;52.446;10.840;2023-05-21T14:01:37;27.00;99.90
31309;DHT22;17936;52.446;10.840;2023-05-21T14:04:03;27.10;99.90
31309;DHT22;17936;52.446;10.840;2023-05-21T14:06:34;26.80;99.90
31309;DHT22;17936;52.446;10.840;2023-05-21T14:09:00;26.60;99.90
31309;DHT22;17936;52.446;10.840;2023-05-21T14:11:27;26.40;99.90
31309;DHT22;17936;52.446;10.840;2023-05-21T14:13:52;26.30;99.90
31309;DHT22;17936;52.446;10.840;2023-05-21T14:16:19;26.40;99.90
31309;DHT22;17936;52.446;10.840;2023-05-21T14:18:44;26.80;99.90
31309;DHT22;17936;52.446;10.840;2023-05-21T14:21:10;27.10;99.90
31309;DHT22;17936;52.446;10.840;2023-05-21T14:23:35;27.20;99.90
31309;DHT22;17936;52.446;10.840;2023-05-21T14:26:01;26.90;99.90
31309;DHT22;17936;52.446;10.840;2023-05-21T14:28:26;26.90;99.90
31309;DHT22;17936;52.446;10.840;2023-05-21T14:30:52;27.00;99.90
31309;DHT22;17936;52.446;10.840;2023-05-21T14:33:17;26.60;99.90
31309;DHT22;17936;52.446;10.840;2023-05-21T14:35:43;26.60;99.90
31309;DHT22;17936;52.446;10.840;2023-05-21T14:38:09;26.30;99.90
31309;DHT22;17936;52.446;10.840;2023-05-21T14:40:35;26.40;99.90
31309;DHT22;17936;52.446;10.840;2023-05-21T14:43:01;26.40;99.90
31309;DHT22;17936;52.446;10.840;2023-05-21T14:45:26;26.20;99.90
31309;DHT22;17936;52.446;10.840;2023-05-21T14:47:52;26.20;99.90
31309;DHT22;17936;52.446;10.840;2023-05-21T14:50:17;26.60;99.90
31309;DHT22;17936;52.446;10.840;2023-05-21T14:52:43;26.70;99.90
31309;DHT22;17936;52.446;10.840;2023-05-21T14:55:09;26.80;99.90
31309;DHT22;17936;52.446;10.840;2023-05-21T14:57:35;26.70;99.90
31309;DHT22;17936;52.446;10.840;2023-05-21T15:00:00;26.80;99.90
31309;DHT22;17936;52.446;10.840;2023-05-21T15:02:26;26.70;99.90
31309;DHT22;17936;52.446;10.840;2023-05-21T15:04:52;26.60;99.90
31309;DHT22;17936;52.446;10.840;2023-05-21T15:07:17;26.60;99.90
31309;DHT22;17936;52.446;10.840;2023-05-21T15:09:43;26.50;99.90
31309;DHT22;17936;52.446;10.840;2023-05-21T15:12:08;26.70;99.90
31309;DHT22;17936;52.446;10.840;2023-05-21T15:14:34;26.90;99.90
31309;DHT22;17936;52.446;10.840;2023-05-21T15:16:59;27.10;99.90
31309;DHT22;17936;52.446;10.840;2023-05-21T15:19:25;27.00;99.90
31309;DHT22;17936;52.446;10.840;2023-05-21T15:21:51;26.70;99.90
31309;DHT22;17936;52.446;10.840;2023-05-21T15:24:17;26.70;99.90
31309;DHT22;17936;52.446;10.840;2023-05-21T15:26:42;26.90;99.90
31309;DHT22;17936;52.446;10.840;2023-05-21T15:29:08;27.10;99.90
31309;DHT22;17936;52.446;10.840;2023-05-21T15:31:33;27.20;99.90